KSFB/SFB METAR and TAF weather

Enter ICAO airport designator
Station Type Date Time Source
KSFB METAR 2021/03/07 08:53 UTC NOAA

KSFB 070853Z AUTO 35013KT 10SM FEW011 BKN060 OVC090 13/11 A3006 RMK AO2 SLP180 60000 T01280106 55001


Station Type Date Time Source
KSFB Decoded METAR 2021/03/07 08:53 UTC NOAA

ORLANDO SANFORD AIRPORT, FL, United States (KSFB) 28-47N 081-15W
Mar 07, 2021 - 03:53 AM EST / 2021.03.07 0853 UTC
Wind: from the N (350 degrees) at 15 MPH (13 KT):0
Visibility: 10 mile(s):0
Sky conditions: overcast
Temperature: 55.0 F (12.8 C)
Dew Point: 51.1 F (10.6 C)
Relative Humidity: 86%
Pressure (altimeter): 30.06 in. Hg (1017 hPa)
Pressure tendency: 0.00 inches (0.1 hPa) lower than three hours ago
ob: KSFB 070853Z AUTO 35013KT 10SM FEW011 BKN060 OVC090 13/11 A3006 RMK AO2 SLP180 60000 T01280106 55001
cycle: 9

Station Type Date Time Source
KSFB TAF 2021/03/07 09:51 UTC NOAA

TAF
AMD KSFB 070848Z 0709/0806 01012G18KT P6SM VCSH BKN050 OVC070
FM071500 01015G22KT P6SM SKC
FM080000 36007KT P6SM SKC

Example: see airport list